sensor_id;sensor_type;location;lat;lon;timestamp;P1;durP1;ratioP1;P2;durP2;ratioP2
49384;SDS011;36795;45.028;38.968;2023-12-04T00:00:45;24.75;;;7.07;;
49384;SDS011;36795;45.028;38.968;2023-12-04T00:03:32;29.90;;;6.97;;
49384;SDS011;36795;45.028;38.968;2023-12-04T00:06:18;29.30;;;7.18;;
49384;SDS011;36795;45.028;38.968;2023-12-04T00:09:04;28.80;;;7.50;;
49384;SDS011;36795;45.028;38.968;2023-12-04T00:11:50;24.83;;;7.68;;
49384;SDS011;36795;45.028;38.968;2023-12-04T00:14:37;25.25;;;7.80;;
49384;SDS011;36795;45.028;38.968;2023-12-04T00:17:23;29.90;;;8.57;;
49384;SDS011;36795;45.028;38.968;2023-12-04T00:20:09;30.70;;;8.68;;
49384;SDS011;36795;45.028;38.968;2023-12-04T00:22:55;30.73;;;8.20;;
49384;SDS011;36795;45.028;38.968;2023-12-04T00:25:41;33.22;;;8.05;;
49384;SDS011;36795;45.028;38.968;2023-12-04T00:28:27;36.50;;;7.80;;
49384;SDS011;36795;45.028;38.968;2023-12-04T00:31:14;38.90;;;9.00;;
49384;SDS011;36795;45.028;38.968;2023-12-04T00:34:00;30.23;;;9.23;;
49384;SDS011;36795;45.028;38.968;2023-12-04T00:36:46;33.47;;;8.18;;
49384;SDS011;36795;45.028;38.968;2023-12-04T00:39:32;36.58;;;8.43;;
49384;SDS011;36795;45.028;38.968;2023-12-04T00:42:18;31.02;;;8.77;;
49384;SDS011;36795;45.028;38.968;2023-12-04T00:45:04;31.25;;;8.90;;
49384;SDS011;36795;45.028;38.968;2023-12-04T00:47:51;33.53;;;9.15;;
49384;SDS011;36795;45.028;38.968;2023-12-04T00:50:36;32.20;;;8.90;;
49384;SDS011;36795;45.028;38.968;2023-12-04T00:53:22;31.48;;;8.00;;
49384;SDS011;36795;45.028;38.968;2023-12-04T00:56:08;31.65;;;8.95;;
49384;SDS011;36795;45.028;38.968;2023-12-04T00:58:55;33.05;;;9.10;;
49384;SDS011;36795;45.028;38.968;2023-12-04T01:01:41;34.53;;;9.57;;
49384;SDS011;36795;45.028;38.968;2023-12-04T01:04:27;29.45;;;9.15;;
49384;SDS011;36795;45.028;38.968;2023-12-04T01:07:13;38.15;;;9.32;;
49384;SDS011;36795;45.028;38.968;2023-12-04T01:09:59;31.58;;;10.13;;
49384;SDS011;36795;45.028;38.968;2023-12-04T01:12:46;31.30;;;9.07;;
49384;SDS011;36795;45.028;38.968;2023-12-04T01:15:32;34.40;;;10.43;;
49384;SDS011;36795;45.028;38.968;2023-12-04T01:18:18;32.35;;;9.23;;
49384;SDS011;36795;45.028;38.968;2023-12-04T01:21:04;32.83;;;9.45;;
49384;SDS011;36795;45.028;38.968;2023-12-04T01:23:50;29.75;;;8.88;;
49384;SDS011;36795;45.028;38.968;2023-12-04T01:26:36;34.38;;;9.82;;
49384;SDS011;36795;45.028;38.968;2023-12-04T01:29:23;34.00;;;9.30;;
49384;SDS011;36795;45.028;38.968;2023-12-04T01:32:09;32.30;;;9.73;;
49384;SDS011;36795;45.028;38.968;2023-12-04T01:34:55;41.00;;;10.18;;
49384;SDS011;36795;45.028;38.968;2023-12-04T01:37:41;34.28;;;9.77;;
49384;SDS011;36795;45.028;38.968;2023-12-04T01:40:27;34.63;;;9.80;;
49384;SDS011;36795;45.028;38.968;2023-12-04T01:43:13;35.40;;;9.43;;
49384;SDS011;36795;45.028;38.968;2023-12-04T01:46:00;31.23;;;10.00;;
49384;SDS011;36795;45.028;38.968;2023-12-04T01:48:47;33.72;;;10.15;;
49384;SDS011;36795;45.028;38.968;2023-12-04T01:51:33;40.30;;;11.27;;
49384;SDS011;36795;45.028;38.968;2023-12-04T01:54:21;38.72;;;10.82;;
49384;SDS011;36795;45.028;38.968;2023-12-04T01:57:07;35.28;;;9.90;;
49384;SDS011;36795;45.028;38.968;2023-12-04T01:59:55;37.28;;;10.25;;
49384;SDS011;36795;45.028;38.968;2023-12-04T02:02:41;32.10;;;10.20;;
49384;SDS011;36795;45.028;38.968;2023-12-04T02:05:28;33.63;;;10.70;;
49384;SDS011;36795;45.028;38.968;2023-12-04T02:08:15;37.20;;;11.20;;
49384;SDS011;36795;45.028;38.968;2023-12-04T02:11:02;32.42;;;9.82;;
49384;SDS011;36795;45.028;38.968;2023-12-04T02:13:48;35.15;;;10.05;;
49384;SDS011;36795;45.028;38.968;2023-12-04T02:16:38;36.55;;;11.35;;
49384;SDS011;36795;45.028;38.968;2023-12-04T02:19:27;37.75;;;11.32;;
49384;SDS011;36795;45.028;38.968;2023-12-04T02:22:13;35.30;;;10.32;;
49384;SDS011;36795;45.028;38.968;2023-12-04T02:24:59;42.50;;;11.93;;
49384;SDS011;36795;45.028;38.968;2023-12-04T02:27:52;42.75;;;11.43;;
49384;SDS011;36795;45.028;38.968;2023-12-04T02:30:41;33.35;;;10.05;;
49384;SDS011;36795;45.028;38.968;2023-12-04T02:33:29;34.67;;;10.80;;
49384;SDS011;36795;45.028;38.968;2023-12-04T02:36:16;34.63;;;10.60;;
49384;SDS011;36795;45.028;38.968;2023-12-04T02:39:04;37.80;;;10.93;;
49384;SDS011;36795;45.028;38.968;2023-12-04T02:41:50;35.00;;;11.25;;
49384;SDS011;36795;45.028;38.968;2023-12-04T02:44:37;39.65;;;11.32;;
49384;SDS011;36795;45.028;38.968;2023-12-04T02:47:23;35.75;;;11.02;;
49384;SDS011;36795;45.028;38.968;2023-12-04T02:50:09;36.03;;;10.30;;
49384;SDS011;36795;45.028;38.968;2023-12-04T02:52:55;37.55;;;11.30;;
49384;SDS011;36795;45.028;38.968;2023-12-04T02:55:41;33.00;;;10.98;;
49384;SDS011;36795;45.028;38.968;2023-12-04T02:58:27;36.55;;;11.00;;
49384;SDS011;36795;45.028;38.968;2023-12-04T03:01:13;35.28;;;10.90;;
49384;SDS011;36795;45.028;38.968;2023-12-04T03:03:59;38.67;;;12.35;;
49384;SDS011;36795;45.028;38.968;2023-12-04T03:06:45;34.03;;;11.10;;
49384;SDS011;36795;45.028;38.968;2023-12-04T03:09:31;36.50;;;11.15;;
49384;SDS011;36795;45.028;38.968;2023-12-04T03:12:18;32.45;;;12.65;;
49384;SDS011;36795;45.028;38.968;2023-12-04T03:15:03;35.13;;;11.65;;
49384;SDS011;36795;45.028;38.968;2023-12-04T03:17:50;34.42;;;10.90;;
49384;SDS011;36795;45.028;38.968;2023-12-04T03:20:37;36.40;;;11.65;;
49384;SDS011;36795;45.028;38.968;2023-12-04T03:23:23;36.28;;;12.00;;
49384;SDS011;36795;45.028;38.968;2023-12-04T03:26:09;38.97;;;13.52;;
49384;SDS011;36795;45.028;38.968;2023-12-04T03:28:56;33.83;;;12.27;;
49384;SDS011;36795;45.028;38.968;2023-12-04T03:31:41;41.97;;;14.07;;
49384;SDS011;36795;45.028;38.968;2023-12-04T03:34:28;37.28;;;12.75;;
49384;SDS011;36795;45.028;38.968;2023-12-04T03:37:13;35.55;;;13.50;;
49384;SDS011;36795;45.028;38.968;2023-12-04T03:39:59;43.03;;;16.87;;
49384;SDS011;36795;45.028;38.968;2023-12-04T03:42:45;36.95;;;15.40;;
49384;SDS011;36795;45.028;38.968;2023-12-04T03:45:31;39.55;;;14.32;;
49384;SDS011;36795;45.028;38.968;2023-12-04T03:48:17;44.88;;;15.10;;
49384;SDS011;36795;45.028;38.968;2023-12-04T03:51:04;41.63;;;13.25;;
49384;SDS011;36795;45.028;38.968;2023-12-04T03:53:50;38.55;;;14.32;;
49384;SDS011;36795;45.028;38.968;2023-12-04T03:56:37;43.67;;;13.77;;
49384;SDS011;36795;45.028;38.968;2023-12-04T03:59:23;37.88;;;13.23;;
49384;SDS011;36795;45.028;38.968;2023-12-04T04:02:09;36.58;;;13.55;;
49384;SDS011;36795;45.028;38.968;2023-12-04T04:04:55;40.00;;;14.73;;
49384;SDS011;36795;45.028;38.968;2023-12-04T04:07:41;41.55;;;14.63;;
49384;SDS011;36795;45.028;38.968;2023-12-04T04:10:28;43.60;;;12.82;;
49384;SDS011;36795;45.028;38.968;2023-12-04T04:13:14;38.80;;;13.55;;
49384;SDS011;36795;45.028;38.968;2023-12-04T04:16:00;38.63;;;13.43;;
49384;SDS011;36795;45.028;38.968;2023-12-04T04:18:46;42.60;;;14.10;;
49384;SDS011;36795;45.028;38.968;2023-12-04T04:21:32;40.75;;;12.40;;
49384;SDS011;36795;45.028;38.968;2023-12-04T04:24:18;44.80;;;15.93;;
49384;SDS011;36795;45.028;38.968;2023-12-04T04:27:05;46.70;;;14.82;;
49384;SDS011;36795;45.028;38.968;2023-12-04T04:29:51;41.15;;;14.10;;
49384;SDS011;36795;45.028;38.968;2023-12-04T04:32:37;36.35;;;13.38;;
49384;SDS011;36795;45.028;38.968;2023-12-04T04:35:23;40.20;;;18.35;;
49384;SDS011;36795;45.028;38.968;2023-12-04T04:38:09;53.10;;;18.33;;
49384;SDS011;36795;45.028;38.968;2023-12-04T04:40:55;49.30;;;16.70;;
49384;SDS011;36795;45.028;38.968;2023-12-04T04:43:42;40.92;;;14.30;;
49384;SDS011;36795;45.028;38.968;2023-12-04T04:46:28;37.30;;;12.85;;
49384;SDS011;36795;45.028;38.968;2023-12-04T04:49:14;39.75;;;11.73;;
49384;SDS011;36795;45.028;38.968;2023-12-04T04:51:59;36.20;;;12.10;;
49384;SDS011;36795;45.028;38.968;2023-12-04T04:54:46;36.80;;;11.68;;
49384;SDS011;36795;45.028;38.968;2023-12-04T04:57:31;43.33;;;12.40;;
49384;SDS011;36795;45.028;38.968;2023-12-04T05:00:18;40.83;;;14.77;;
49384;SDS011;36795;45.028;38.968;2023-12-04T05:03:04;39.60;;;13.35;;
49384;SDS011;36795;45.028;38.968;2023-12-04T05:05:51;40.15;;;14.02;;
49384;SDS011;36795;45.028;38.968;2023-12-04T05:08:37;43.05;;;14.52;;
49384;SDS011;36795;45.028;38.968;2023-12-04T05:11:23;40.45;;;15.63;;
49384;SDS011;36795;45.028;38.968;2023-12-04T05:14:09;51.58;;;17.48;;
49384;SDS011;36795;45.028;38.968;2023-12-04T05:16:55;44.65;;;14.93;;
49384;SDS011;36795;45.028;38.968;2023-12-04T05:19:41;45.60;;;15.25;;
49384;SDS011;36795;45.028;38.968;2023-12-04T05:22:27;45.10;;;13.98;;
49384;SDS011;36795;45.028;38.968;2023-12-04T05:25:13;49.03;;;14.07;;
49384;SDS011;36795;45.028;38.968;2023-12-04T05:27:59;43.30;;;14.82;;
49384;SDS011;36795;45.028;38.968;2023-12-04T05:30:45;41.67;;;13.70;;
49384;SDS011;36795;45.028;38.968;2023-12-04T05:33:32;43.05;;;14.85;;
49384;SDS011;36795;45.028;38.968;2023-12-04T05:36:18;49.65;;;15.55;;
49384;SDS011;36795;45.028;38.968;2023-12-04T05:39:04;41.37;;;15.45;;
49384;SDS011;36795;45.028;38.968;2023-12-04T05:41:50;33.72;;;15.10;;
49384;SDS011;36795;45.028;38.968;2023-12-04T05:44:36;33.38;;;14.50;;
49384;SDS011;36795;45.028;38.968;2023-12-04T05:47:22;34.10;;;13.55;;
49384;SDS011;36795;45.028;38.968;2023-12-04T05:50:09;38.88;;;14.05;;
49384;SDS011;36795;45.028;38.968;2023-12-04T05:52:54;35.40;;;14.00;;
49384;SDS011;36795;45.028;38.968;2023-12-04T05:55:40;33.88;;;14.70;;
49384;SDS011;36795;45.028;38.968;2023-12-04T05:58:26;39.95;;;15.93;;
49384;SDS011;36795;45.028;38.968;2023-12-04T06:01:14;36.72;;;13.48;;
49384;SDS011;36795;45.028;38.968;2023-12-04T06:04:00;42.67;;;16.30;;
49384;SDS011;36795;45.028;38.968;2023-12-04T06:06:46;36.05;;;15.07;;
49384;SDS011;36795;45.028;38.968;2023-12-04T06:09:32;47.83;;;16.70;;
49384;SDS011;36795;45.028;38.968;2023-12-04T06:12:18;48.03;;;19.45;;
49384;SDS011;36795;45.028;38.968;2023-12-04T06:15:05;43.63;;;17.75;;
49384;SDS011;36795;45.028;38.968;2023-12-04T06:17:51;54.22;;;19.27;;
49384;SDS011;36795;45.028;38.968;2023-12-04T06:20:37;49.42;;;19.23;;
49384;SDS011;36795;45.028;38.968;2023-12-04T06:23:23;45.22;;;16.60;;
49384;SDS011;36795;45.028;38.968;2023-12-04T06:26:10;42.55;;;18.37;;
49384;SDS011;36795;45.028;38.968;2023-12-04T06:28:57;37.97;;;17.35;;
49384;SDS011;36795;45.028;38.968;2023-12-04T06:31:43;43.67;;;16.58;;
49384;SDS011;36795;45.028;38.968;2023-12-04T06:34:29;43.55;;;16.87;;
49384;SDS011;36795;45.028;38.968;2023-12-04T06:37:16;39.28;;;15.43;;
49384;SDS011;36795;45.028;38.968;2023-12-04T06:40:02;41.67;;;15.55;;
49384;SDS011;36795;45.028;38.968;2023-12-04T06:42:49;36.55;;;14.63;;
49384;SDS011;36795;45.028;38.968;2023-12-04T06:45:35;41.40;;;16.42;;
49384;SDS011;36795;45.028;38.968;2023-12-04T06:48:21;39.22;;;14.48;;
49384;SDS011;36795;45.028;38.968;2023-12-04T06:51:07;40.90;;;14.52;;
49384;SDS011;36795;45.028;38.968;2023-12-04T06:53:54;40.85;;;14.23;;
49384;SDS011;36795;45.028;38.968;2023-12-04T06:56:39;44.53;;;15.07;;
49384;SDS011;36795;45.028;38.968;2023-12-04T06:59:26;37.10;;;14.05;;
49384;SDS011;36795;45.028;38.968;2023-12-04T07:02:12;35.55;;;15.10;;
49384;SDS011;36795;45.028;38.968;2023-12-04T07:04:59;36.90;;;15.13;;
49384;SDS011;36795;45.028;38.968;2023-12-04T07:07:45;35.58;;;15.18;;
49384;SDS011;36795;45.028;38.968;2023-12-04T07:10:31;38.28;;;16.40;;
49384;SDS011;36795;45.028;38.968;2023-12-04T07:13:17;45.55;;;16.62;;
49384;SDS011;36795;45.028;38.968;2023-12-04T07:16:03;35.70;;;17.35;;
49384;SDS011;36795;45.028;38.968;2023-12-04T07:18:49;44.22;;;17.40;;
49384;SDS011;36795;45.028;38.968;2023-12-04T07:21:36;46.53;;;16.70;;
49384;SDS011;36795;45.028;38.968;2023-12-04T07:24:22;36.80;;;15.35;;
49384;SDS011;36795;45.028;38.968;2023-12-04T07:27:08;38.90;;;16.37;;
49384;SDS011;36795;45.028;38.968;2023-12-04T07:29:54;40.50;;;16.00;;
49384;SDS011;36795;45.028;38.968;2023-12-04T07:32:40;38.17;;;17.25;;
49384;SDS011;36795;45.028;38.968;2023-12-04T07:35:26;34.33;;;15.15;;
49384;SDS011;36795;45.028;38.968;2023-12-04T07:38:12;32.08;;;14.05;;
49384;SDS011;36795;45.028;38.968;2023-12-04T07:40:58;33.08;;;13.18;;
49384;SDS011;36795;45.028;38.968;2023-12-04T07:43:45;30.83;;;13.60;;
49384;SDS011;36795;45.028;38.968;2023-12-04T07:46:31;36.50;;;14.15;;
49384;SDS011;36795;45.028;38.968;2023-12-04T07:49:17;32.13;;;13.60;;
49384;SDS011;36795;45.028;38.968;2023-12-04T07:52:03;31.58;;;13.95;;
49384;SDS011;36795;45.028;38.968;2023-12-04T07:54:49;30.88;;;14.15;;
49384;SDS011;36795;45.028;38.968;2023-12-04T07:57:35;30.85;;;14.02;;
49384;SDS011;36795;45.028;38.968;2023-12-04T08:00:21;35.03;;;15.25;;
49384;SDS011;36795;45.028;38.968;2023-12-04T08:03:11;30.95;;;14.98;;
49384;SDS011;36795;45.028;38.968;2023-12-04T08:05:57;32.60;;;14.93;;
49384;SDS011;36795;45.028;38.968;2023-12-04T08:08:46;30.67;;;13.00;;
49384;SDS011;36795;45.028;38.968;2023-12-04T08:11:32;30.25;;;12.48;;
49384;SDS011;36795;45.028;38.968;2023-12-04T08:14:18;29.52;;;12.63;;
49384;SDS011;36795;45.028;38.968;2023-12-04T08:17:04;28.95;;;12.13;;
49384;SDS011;36795;45.028;38.968;2023-12-04T08:19:50;28.65;;;11.55;;
49384;SDS011;36795;45.028;38.968;2023-12-04T08:22:36;28.58;;;11.82;;
49384;SDS011;36795;45.028;38.968;2023-12-04T08:25:22;26.62;;;11.38;;
49384;SDS011;36795;45.028;38.968;2023-12-04T08:28:08;36.28;;;13.95;;
49384;SDS011;36795;45.028;38.968;2023-12-04T08:30:54;28.20;;;12.07;;
49384;SDS011;36795;45.028;38.968;2023-12-04T08:33:40;28.50;;;12.00;;
49384;SDS011;36795;45.028;38.968;2023-12-04T08:36:26;28.05;;;11.88;;
49384;SDS011;36795;45.028;38.968;2023-12-04T08:39:12;28.77;;;12.50;;
49384;SDS011;36795;45.028;38.968;2023-12-04T08:41:59;29.45;;;12.52;;
49384;SDS011;36795;45.028;38.968;2023-12-04T08:44:44;30.85;;;12.07;;
49384;SDS011;36795;45.028;38.968;2023-12-04T08:47:32;27.65;;;11.30;;
49384;SDS011;36795;45.028;38.968;2023-12-04T08:50:19;27.67;;;10.90;;
49384;SDS011;36795;45.028;38.968;2023-12-04T08:53:05;27.45;;;11.40;;
49384;SDS011;36795;45.028;38.968;2023-12-04T08:55:51;29.92;;;12.37;;
49384;SDS011;36795;45.028;38.968;2023-12-04T08:58:38;28.77;;;12.10;;
49384;SDS011;36795;45.028;38.968;2023-12-04T09:01:24;25.90;;;12.00;;
49384;SDS011;36795;45.028;38.968;2023-12-04T09:04:10;25.80;;;12.00;;
49384;SDS011;36795;45.028;38.968;2023-12-04T09:06:57;32.47;;;11.50;;
49384;SDS011;36795;45.028;38.968;2023-12-04T09:09:43;30.85;;;12.60;;
49384;SDS011;36795;45.028;38.968;2023-12-04T09:12:30;27.75;;;12.13;;
49384;SDS011;36795;45.028;38.968;2023-12-04T09:15:16;29.58;;;11.88;;
49384;SDS011;36795;45.028;38.968;2023-12-04T09:18:02;27.20;;;10.60;;
49384;SDS011;36795;45.028;38.968;2023-12-04T09:20:49;28.95;;;10.95;;
49384;SDS011;36795;45.028;38.968;2023-12-04T09:23:35;28.95;;;10.50;;
49384;SDS011;36795;45.028;38.968;2023-12-04T09:26:21;27.13;;;10.48;;
49384;SDS011;36795;45.028;38.968;2023-12-04T09:29:07;27.10;;;9.70;;
49384;SDS011;36795;45.028;38.968;2023-12-04T09:31:54;31.50;;;10.70;;
49384;SDS011;36795;45.028;38.968;2023-12-04T09:34:40;27.33;;;10.35;;
49384;SDS011;36795;45.028;38.968;2023-12-04T09:37:26;28.33;;;9.20;;
49384;SDS011;36795;45.028;38.968;2023-12-04T09:40:12;25.73;;;8.43;;
49384;SDS011;36795;45.028;38.968;2023-12-04T09:42:59;25.12;;;9.02;;
49384;SDS011;36795;45.028;38.968;2023-12-04T09:45:45;24.08;;;7.97;;
49384;SDS011;36795;45.028;38.968;2023-12-04T09:48:31;22.10;;;7.20;;
49384;SDS011;36795;45.028;38.968;2023-12-04T09:51:19;28.35;;;8.05;;
49384;SDS011;36795;45.028;38.968;2023-12-04T09:54:07;24.70;;;8.23;;
49384;SDS011;36795;45.028;38.968;2023-12-04T09:56:53;30.37;;;7.75;;
49384;SDS011;36795;45.028;38.968;2023-12-04T09:59:40;20.75;;;6.75;;
49384;SDS011;36795;45.028;38.968;2023-12-04T10:02:28;20.45;;;7.50;;
49384;SDS011;36795;45.028;38.968;2023-12-04T10:05:15;23.25;;;7.60;;
49384;SDS011;36795;45.028;38.968;2023-12-04T10:08:01;22.27;;;7.65;;
49384;SDS011;36795;45.028;38.968;2023-12-04T10:10:47;21.55;;;7.78;;
49384;SDS011;36795;45.028;38.968;2023-12-04T10:13:32;22.75;;;8.27;;
49384;SDS011;36795;45.028;38.968;2023-12-04T10:16:32;22.45;;;8.68;;
49384;SDS011;36795;45.028;38.968;2023-12-04T10:19:28;25.85;;;9.48;;
49384;SDS011;36795;45.028;38.968;2023-12-04T10:22:15;23.62;;;9.75;;
49384;SDS011;36795;45.028;38.968;2023-12-04T10:25:04;29.25;;;11.80;;
49384;SDS011;36795;45.028;38.968;2023-12-04T10:28:08;25.10;;;9.63;;
49384;SDS011;36795;45.028;38.968;2023-12-04T10:30:55;25.95;;;10.63;;
49384;SDS011;36795;45.028;38.968;2023-12-04T10:33:42;27.85;;;9.80;;
49384;SDS011;36795;45.028;38.968;2023-12-04T10:36:28;30.35;;;12.88;;
49384;SDS011;36795;45.028;38.968;2023-12-04T10:39:14;32.55;;;11.15;;
49384;SDS011;36795;45.028;38.968;2023-12-04T10:42:04;26.77;;;11.12;;
49384;SDS011;36795;45.028;38.968;2023-12-04T10:44:52;26.50;;;10.43;;
49384;SDS011;36795;45.028;38.968;2023-12-04T10:47:41;23.83;;;10.02;;
49384;SDS011;36795;45.028;38.968;2023-12-04T10:50:34;26.00;;;9.75;;
49384;SDS011;36795;45.028;38.968;2023-12-04T10:53:23;27.33;;;8.43;;
49384;SDS011;36795;45.028;38.968;2023-12-04T10:56:09;23.83;;;7.50;;
49384;SDS011;36795;45.028;38.968;2023-12-04T10:58:58;28.65;;;9.85;;
49384;SDS011;36795;45.028;38.968;2023-12-04T11:01:49;22.58;;;7.12;;
49384;SDS011;36795;45.028;38.968;2023-12-04T11:04:40;21.55;;;7.97;;
49384;SDS011;36795;45.028;38.968;2023-12-04T11:07:28;22.80;;;7.93;;
49384;SDS011;36795;45.028;38.968;2023-12-04T11:10:16;31.55;;;11.90;;
49384;SDS011;36795;45.028;38.968;2023-12-04T11:13:06;23.75;;;8.70;;
49384;SDS011;36795;45.028;38.968;2023-12-04T11:16:01;24.77;;;9.50;;
49384;SDS011;36795;45.028;38.968;2023-12-04T11:19:38;25.88;;;9.70;;
49384;SDS011;36795;45.028;38.968;2023-12-04T11:22:37;27.45;;;12.18;;
49384;SDS011;36795;45.028;38.968;2023-12-04T11:25:25;25.17;;;10.60;;
49384;SDS011;36795;45.028;38.968;2023-12-04T11:28:11;29.67;;;11.73;;
49384;SDS011;36795;45.028;38.968;2023-12-04T11:30:59;38.95;;;14.05;;
49384;SDS011;36795;45.028;38.968;2023-12-04T11:33:49;29.05;;;12.30;;
49384;SDS011;36795;45.028;38.968;2023-12-04T11:36:35;36.47;;;13.85;;
49384;SDS011;36795;45.028;38.968;2023-12-04T11:39:22;28.77;;;12.60;;
49384;SDS011;36795;45.028;38.968;2023-12-04T11:42:11;33.08;;;12.48;;
49384;SDS011;36795;45.028;38.968;2023-12-04T11:44:57;30.75;;;12.80;;
49384;SDS011;36795;45.028;38.968;2023-12-04T11:47:51;30.75;;;12.43;;
49384;SDS011;36795;45.028;38.968;2023-12-04T11:50:38;29.83;;;13.18;;
49384;SDS011;36795;45.028;38.968;2023-12-04T11:53:26;32.90;;;12.45;;
49384;SDS011;36795;45.028;38.968;2023-12-04T11:56:12;32.30;;;13.60;;
49384;SDS011;36795;45.028;38.968;2023-12-04T11:59:03;32.53;;;15.15;;
49384;SDS011;36795;45.028;38.968;2023-12-04T12:01:50;30.33;;;13.45;;
49384;SDS011;36795;45.028;38.968;2023-12-04T12:04:39;29.27;;;13.95;;
49384;SDS011;36795;45.028;38.968;2023-12-04T12:07:25;34.20;;;14.27;;
49384;SDS011;36795;45.028;38.968;2023-12-04T12:10:12;34.40;;;16.15;;
49384;SDS011;36795;45.028;38.968;2023-12-04T12:12:58;38.10;;;19.33;;
49384;SDS011;36795;45.028;38.968;2023-12-04T12:15:48;36.88;;;15.98;;
49384;SDS011;36795;45.028;38.968;2023-12-04T12:18:35;38.20;;;16.42;;
49384;SDS011;36795;45.028;38.968;2023-12-04T12:21:22;30.27;;;14.73;;
49384;SDS011;36795;45.028;38.968;2023-12-04T12:24:08;34.10;;;14.55;;
49384;SDS011;36795;45.028;38.968;2023-12-04T12:26:57;34.17;;;15.23;;
49384;SDS011;36795;45.028;38.968;2023-12-04T12:29:43;35.50;;;14.50;;
49384;SDS011;36795;45.028;38.968;2023-12-04T12:32:30;36.10;;;15.10;;
49384;SDS011;36795;45.028;38.968;2023-12-04T12:35:16;31.52;;;13.00;;
49384;SDS011;36795;45.028;38.968;2023-12-04T12:38:02;34.72;;;14.15;;
49384;SDS011;36795;45.028;38.968;2023-12-04T12:40:48;29.85;;;11.63;;
49384;SDS011;36795;45.028;38.968;2023-12-04T12:43:35;27.08;;;12.25;;
49384;SDS011;36795;45.028;38.968;2023-12-04T12:46:20;31.37;;;13.05;;
49384;SDS011;36795;45.028;38.968;2023-12-04T12:49:08;32.85;;;12.77;;
49384;SDS011;36795;45.028;38.968;2023-12-04T12:51:55;28.38;;;12.52;;
49384;SDS011;36795;45.028;38.968;2023-12-04T12:54:42;31.17;;;13.70;;
49384;SDS011;36795;45.028;38.968;2023-12-04T12:57:29;29.25;;;12.50;;
49384;SDS011;36795;45.028;38.968;2023-12-04T13:00:15;27.62;;;12.88;;
49384;SDS011;36795;45.028;38.968;2023-12-04T13:03:03;33.25;;;12.88;;
49384;SDS011;36795;45.028;38.968;2023-12-04T13:05:49;34.05;;;14.25;;
49384;SDS011;36795;45.028;38.968;2023-12-04T13:08:35;30.00;;;14.25;;
49384;SDS011;36795;45.028;38.968;2023-12-04T13:11:21;28.45;;;13.98;;
49384;SDS011;36795;45.028;38.968;2023-12-04T13:14:07;35.42;;;16.08;;
49384;SDS011;36795;45.028;38.968;2023-12-04T13:16:54;30.15;;;14.40;;
49384;SDS011;36795;45.028;38.968;2023-12-04T13:19:40;32.38;;;14.27;;
49384;SDS011;36795;45.028;38.968;2023-12-04T13:22:27;31.02;;;13.00;;
49384;SDS011;36795;45.028;38.968;2023-12-04T13:25:12;28.42;;;12.02;;
49384;SDS011;36795;45.028;38.968;2023-12-04T13:27:59;29.37;;;12.75;;
49384;SDS011;36795;45.028;38.968;2023-12-04T13:30:45;28.38;;;11.52;;
49384;SDS011;36795;45.028;38.968;2023-12-04T13:33:32;31.25;;;11.48;;
49384;SDS011;36795;45.028;38.968;2023-12-04T13:36:18;34.15;;;16.50;;
49384;SDS011;36795;45.028;38.968;2023-12-04T13:39:04;34.03;;;14.82;;
49384;SDS011;36795;45.028;38.968;2023-12-04T13:41:52;24.50;;;9.50;;
49384;SDS011;36795;45.028;38.968;2023-12-04T13:47:42;26.05;;;11.12;;
49384;SDS011;36795;45.028;38.968;2023-12-04T13:50:31;22.60;;;8.90;;
49384;SDS011;36795;45.028;38.968;2023-12-04T13:53:17;23.52;;;8.70;;
49384;SDS011;36795;45.028;38.968;2023-12-04T13:56:12;23.38;;;8.60;;
49384;SDS011;36795;45.028;38.968;2023-12-04T13:59:17;23.70;;;9.63;;
49384;SDS011;36795;45.028;38.968;2023-12-04T14:02:05;23.55;;;10.05;;
49384;SDS011;36795;45.028;38.968;2023-12-04T14:04:56;23.62;;;9.60;;
49384;SDS011;36795;45.028;38.968;2023-12-04T14:07:42;23.45;;;9.27;;
49384;SDS011;36795;45.028;38.968;2023-12-04T14:10:29;25.02;;;10.30;;
49384;SDS011;36795;45.028;38.968;2023-12-04T14:13:15;25.45;;;11.10;;
49384;SDS011;36795;45.028;38.968;2023-12-04T14:16:01;25.40;;;11.93;;
49384;SDS011;36795;45.028;38.968;2023-12-04T14:18:48;25.67;;;12.25;;
49384;SDS011;36795;45.028;38.968;2023-12-04T14:21:34;25.10;;;11.27;;
49384;SDS011;36795;45.028;38.968;2023-12-04T14:24:20;29.05;;;14.87;;
49384;SDS011;36795;45.028;38.968;2023-12-04T14:27:07;29.17;;;14.40;;
49384;SDS011;36795;45.028;38.968;2023-12-04T14:29:52;29.33;;;14.35;;
49384;SDS011;36795;45.028;38.968;2023-12-04T14:32:39;29.92;;;13.90;;
49384;SDS011;36795;45.028;38.968;2023-12-04T14:35:26;28.20;;;14.02;;
49384;SDS011;36795;45.028;38.968;2023-12-04T14:38:13;28.95;;;13.77;;
49384;SDS011;36795;45.028;38.968;2023-12-04T14:40:59;28.75;;;14.18;;
49384;SDS011;36795;45.028;38.968;2023-12-04T14:43:46;29.12;;;14.45;;
49384;SDS011;36795;45.028;38.968;2023-12-04T14:46:32;29.77;;;12.55;;
49384;SDS011;36795;45.028;38.968;2023-12-04T14:49:18;28.60;;;13.88;;
49384;SDS011;36795;45.028;38.968;2023-12-04T14:52:04;31.55;;;15.10;;
49384;SDS011;36795;45.028;38.968;2023-12-04T14:54:52;30.70;;;15.27;;
49384;SDS011;36795;45.028;38.968;2023-12-04T14:57:47;31.15;;;15.57;;
49384;SDS011;36795;45.028;38.968;2023-12-04T15:00:53;33.15;;;17.25;;
49384;SDS011;36795;45.028;38.968;2023-12-04T15:03:39;35.00;;;17.45;;
49384;SDS011;36795;45.028;38.968;2023-12-04T15:15:50;30.75;;;15.45;;
49384;SDS011;36795;45.028;38.968;2023-12-04T15:18:54;29.40;;;13.02;;
49384;SDS011;36795;45.028;38.968;2023-12-04T15:21:40;28.30;;;12.98;;
49384;SDS011;36795;45.028;38.968;2023-12-04T15:24:26;72.90;;;57.55;;
49384;SDS011;36795;45.028;38.968;2023-12-04T15:27:12;26.55;;;9.63;;
49384;SDS011;36795;45.028;38.968;2023-12-04T15:29:58;27.65;;;9.75;;
49384;SDS011;36795;45.028;38.968;2023-12-04T15:32:44;30.40;;;16.75;;
49384;SDS011;36795;45.028;38.968;2023-12-04T15:35:31;23.48;;;9.90;;
49384;SDS011;36795;45.028;38.968;2023-12-04T15:38:16;24.90;;;9.50;;
49384;SDS011;36795;45.028;38.968;2023-12-04T15:41:04;22.90;;;9.02;;
49384;SDS011;36795;45.028;38.968;2023-12-04T15:43:51;22.02;;;8.13;;
49384;SDS011;36795;45.028;38.968;2023-12-04T15:46:37;26.65;;;10.90;;
49384;SDS011;36795;45.028;38.968;2023-12-04T15:49:23;26.85;;;12.90;;
49384;SDS011;36795;45.028;38.968;2023-12-04T15:52:09;27.52;;;11.48;;
49384;SDS011;36795;45.028;38.968;2023-12-04T15:54:55;25.27;;;11.23;;
49384;SDS011;36795;45.028;38.968;2023-12-04T15:57:41;27.60;;;12.13;;
49384;SDS011;36795;45.028;38.968;2023-12-04T16:00:27;26.80;;;12.65;;
49384;SDS011;36795;45.028;38.968;2023-12-04T16:03:13;26.15;;;11.52;;
49384;SDS011;36795;45.028;38.968;2023-12-04T16:06:00;28.12;;;12.85;;
49384;SDS011;36795;45.028;38.968;2023-12-04T16:08:46;27.37;;;12.80;;
49384;SDS011;36795;45.028;38.968;2023-12-04T16:11:32;28.27;;;12.60;;
49384;SDS011;36795;45.028;38.968;2023-12-04T16:14:18;25.62;;;11.32;;
49384;SDS011;36795;45.028;38.968;2023-12-04T16:17:04;29.52;;;14.30;;